Time;durP1;ratioP1;P1;durP2;ratioP2;P2;SDS_P1;SDS_P2;PMS_P1;PMS_P2;Temp;Humidity;BMP_temperature;BMP_pressure;BME280_temperature;BME280_humidity;BME280_pressure;Samples;Min_cycle;Max_cycle;Signal;HPM_P1;HPM_P2
2022/02/20 00:01:14;;;;;;;9.77;3.60;;;;;;;1.65;76.28;96673.28;5047830;28;20056;-72
2022/02/20 00:03:40;;;;;;;12.32;3.90;;;;;;;1.83;76.73;96689.72;5048417;28;20589;-72
2022/02/20 00:06:08;;;;;;;13.55;5.25;;;;;;;1.79;76.60;96670.63;5046991;28;20111;-72
2022/02/20 00:08:34;;;;;;;12.57;3.60;;;;;;;1.80;76.87;96680.31;5048508;28;20485;-73
2022/02/20 00:11:00;;;;;;;13.23;4.13;;;;;;;1.76;76.84;96678.50;5046327;28;20053;-71
2022/02/20 00:13:26;;;;;;;13.00;3.75;;;;;;;1.78;77.01;96673.63;5049406;28;20068;-71
2022/02/20 00:15:53;;;;;;;13.82;3.40;;;;;;;1.79;76.74;96673.34;5047781;28;20560;-72
2022/02/20 00:18:19;;;;;;;10.85;4.05;;;;;;;1.61;76.82;96674.16;5046198;28;20055;-71
2022/02/20 00:20:46;;;;;;;11.13;3.97;;;;;;;1.81;76.82;96659.56;5044559;28;20041;-71
2022/02/20 00:23:13;;;;;;;13.15;4.25;;;;;;;1.84;76.83;96692.09;5062663;28;20053;-71
2022/02/20 00:25:39;;;;;;;11.18;3.85;;;;;;;1.85;76.45;96676.75;5048902;28;20041;-71
2022/02/20 00:28:05;;;;;;;10.27;3.80;;;;;;;1.79;76.75;96677.91;5046457;28;20443;-71
2022/02/20 00:30:33;;;;;;;8.45;3.35;;;;;;;1.76;76.97;96687.41;5047046;28;20075;-71
2022/02/20 00:33:00;;;;;;;13.85;4.65;;;;;;;1.76;76.89;96673.94;5062105;28;20059;-73
2022/02/20 00:35:28;;;;;;;8.18;3.42;;;;;;;1.73;77.08;96669.13;5061076;28;20435;-73
2022/02/20 00:37:54;;;;;;;11.40;3.72;;;;;;;1.66;77.16;96669.50;5030937;28;20723;-73
2022/02/20 00:40:21;;;;;;;10.80;3.50;;;;;;;1.68;77.23;96659.22;5051657;28;20080;-73
2022/02/20 00:42:47;;;;;;;11.15;3.10;;;;;;;1.65;77.31;96659.00;5033378;28;20049;-73
2022/02/20 00:45:14;;;;;;;9.63;3.22;;;;;;;1.65;77.49;96654.44;5066678;28;20045;-73
2022/02/20 00:47:40;;;;;;;8.23;3.13;;;;;;;1.65;77.46;96659.00;5034327;28;20055;-72
2022/02/20 00:50:08;;;;;;;9.02;3.28;;;;;;;1.63;77.45;96670.06;5050953;28;20083;-72
2022/02/20 00:52:34;;;;;;;12.90;3.75;;;;;;;1.67;77.08;96654.13;5045496;28;20506;-71
2022/02/20 00:55:02;;;;;;;10.77;3.38;;;;;;;1.53;77.87;96659.47;5048331;28;20040;-71
2022/02/20 00:57:29;;;;;;;10.35;3.17;;;;;;;1.56;77.61;96685.81;5064683;28;20104;-71
2022/02/20 00:59:56;;;;;;;9.32;3.13;;;;;;;1.57;77.64;96705.47;5051054;28;20524;-72
2022/02/20 01:02:22;;;;;;;9.52;3.20;;;;;;;1.60;77.43;96662.56;5064091;28;20049;-72
2022/02/20 01:04:51;;;;;;;10.70;3.33;;;;;;;1.52;77.57;96642.50;5049066;28;20049;-73
2022/02/20 01:07:21;;;;;;;7.63;2.92;;;;;;;1.47;77.60;96652.53;5047952;28;20041;-73
2022/02/20 01:09:47;;;;;;;8.95;3.22;;;;;;;1.51;77.74;96640.09;5046387;28;20136;-73
2022/02/20 01:12:13;;;;;;;11.25;3.42;;;;;;;1.53;77.75;96689.88;5043864;28;20046;-72
2022/02/20 01:14:39;;;;;;;7.20;2.95;;;;;;;1.54;77.84;96664.53;5033153;28;20098;-71
2022/02/20 01:17:05;;;;;;;8.85;2.70;;;;;;;1.53;77.84;96686.41;5046376;28;20143;-70
2022/02/20 01:19:31;;;;;;;11.10;3.15;;;;;;;1.42;78.21;96662.31;5044067;28;20187;-71
2022/02/20 01:21:58;;;;;;;12.07;2.92;;;;;;;1.51;77.79;96659.75;5046675;28;20139;-70
2022/02/20 01:24:24;;;;;;;8.73;2.53;;;;;;;1.40;78.23;96669.06;5051812;28;20037;-71
2022/02/20 01:26:50;;;;;;;7.33;2.87;;;;;;;1.38;78.33;96663.97;5041758;28;20057;-70
2022/02/20 01:29:17;;;;;;;10.68;3.00;;;;;;;1.46;77.96;96656.31;5048643;28;20059;-70
2022/02/20 01:31:43;;;;;;;9.68;3.10;;;;;;;1.42;78.35;96648.84;5049216;28;20045;-71
2022/02/20 01:34:10;;;;;;;8.77;2.83;;;;;;;1.30;78.71;96661.94;5049256;28;20048;-77
2022/02/20 01:36:36;;;;;;;7.68;3.08;;;;;;;1.35;78.47;96680.72;5045339;28;20416;-78
2022/02/20 01:39:05;;;;;;;7.00;2.80;;;;;;;1.28;78.80;96661.44;5023254;28;20046;-77
2022/02/20 01:41:32;;;;;;;7.93;2.83;;;;;;;1.19;78.92;96655.13;5016964;28;20041;-77
2022/02/20 01:43:59;;;;;;;10.35;2.63;;;;;;;1.17;79.03;96657.28;5049288;28;20124;-77
2022/02/20 01:46:26;;;;;;;6.60;2.50;;;;;;;1.16;79.35;96655.66;5031867;28;20139;-77
2022/02/20 01:48:53;;;;;;;7.07;2.67;;;;;;;1.12;79.59;96669.72;5026255;28;20049;-77
2022/02/20 01:51:20;;;;;;;7.50;3.10;;;;;;;1.12;79.18;96685.06;5030985;28;20043;-78
2022/02/20 01:53:50;;;;;;;7.40;2.83;;;;;;;1.15;79.54;96654.88;5049097;28;20413;-76
2022/02/20 01:56:16;;;;;;;7.67;2.80;;;;;;;1.25;78.97;96695.13;5067140;28;20052;-76
2022/02/20 01:59:04;;;;;;;7.63;3.33;;;;;;;1.17;78.95;96654.56;5048606;28;20803;-76
2022/02/20 02:01:55;;;;;;;6.03;2.53;;;;;;;1.12;79.33;96658.94;5043778;28;20520;-77
2022/02/20 02:04:27;;;;;;;6.68;2.47;;;;;;;1.16;79.34;96699.53;5060394;28;20498;-77
2022/02/20 02:07:01;;;;;;;10.25;3.83;;;;;;;1.15;79.33;96684.50;5030709;28;20048;-77
2022/02/20 02:09:39;;;;;;;8.52;3.53;;;;;;;1.18;79.26;96680.44;5043905;28;20046;-76
2022/02/20 02:12:13;;;;;;;8.85;2.70;;;;;;;1.13;79.31;96671.31;5031186;28;20045;-76
2022/02/20 02:14:53;;;;;;;8.13;3.67;;;;;;;1.11;79.49;96683.47;5036884;28;20479;-76
2022/02/20 02:17:38;;;;;;;8.35;2.53;;;;;;;1.11;79.45;96686.94;5051428;28;20049;-76
2022/02/20 02:20:25;;;;;;;13.30;3.00;;;;;;;1.12;79.43;96688.56;5049395;28;20064;-76
2022/02/20 02:23:02;;;;;;;7.25;2.53;;;;;;;1.23;78.75;96710.75;5047833;28;20334;-76
2022/02/20 02:25:57;;;;;;;6.75;2.53;;;;;;;1.28;78.73;96688.34;5050426;28;20040;-76
2022/02/20 02:28:42;;;;;;;6.25;2.55;;;;;;;1.33;78.26;96692.88;5038042;28;20184;-76
2022/02/20 02:31:12;;;;;;;5.57;2.22;;;;;;;1.35;77.92;96671.84;5046918;28;20050;-76
2022/02/20 02:33:40;;;;;;;7.63;2.30;;;;;;;1.38;78.05;96706.25;5049932;28;20064;-77
2022/02/20 02:36:08;;;;;;;6.68;2.20;;;;;;;1.48;77.71;96686.44;5048771;28;20590;-76
2022/02/20 02:38:36;;;;;;;7.15;2.35;;;;;;;1.44;77.77;96682.75;5048676;28;20516;-77
2022/02/20 02:41:05;;;;;;;8.50;2.20;;;;;;;1.45;77.69;96689.72;5058834;28;20442;-76
2022/02/20 02:43:33;;;;;;;6.25;2.10;;;;;;;1.45;77.32;96690.53;5046473;28;20041;-77
2022/02/20 02:46:04;;;;;;;7.32;2.20;;;;;;;1.42;77.54;96667.69;5021810;28;20041;-73
2022/02/20 02:48:32;;;;;;;6.53;2.20;;;;;;;1.58;77.33;96678.22;5072203;28;20053;-73
2022/02/20 02:51:01;;;;;;;6.25;2.30;;;;;;;1.45;77.53;96685.16;5054613;28;20049;-73
2022/02/20 02:53:29;;;;;;;5.65;2.10;;;;;;;1.51;77.39;96675.13;5045895;28;20056;-71
2022/02/20 02:55:56;;;;;;;7.57;2.10;;;;;;;1.38;77.51;96673.94;5046468;28;20460;-73
2022/02/20 02:58:26;;;;;;;5.93;2.00;;;;;;;1.35;77.81;96688.00;5046809;28;20049;-72
2022/02/20 03:00:55;;;;;;;7.10;2.42;;;;;;;1.42;77.46;96718.06;5065341;28;20064;-73
2022/02/20 03:03:21;;;;;;;6.90;2.20;;;;;;;1.37;77.78;96724.31;5047920;28;20044;-72
2022/02/20 03:05:48;;;;;;;5.55;2.20;;;;;;;1.41;77.72;96693.00;5039948;28;20056;-72
2022/02/20 03:08:14;;;;;;;6.57;2.05;;;;;;;1.39;77.61;96691.69;5059373;28;20425;-72
2022/02/20 03:10:41;;;;;;;5.90;2.10;;;;;;;1.36;77.75;96701.16;5061449;28;20143;-72
2022/02/20 03:13:10;;;;;;;5.28;2.10;;;;;;;1.38;77.76;96709.75;5025420;28;20136;-71
2022/02/20 03:15:40;;;;;;;6.53;2.05;;;;;;;1.38;77.41;96703.56;5045205;28;20045;-72
2022/02/20 03:18:07;;;;;;;7.30;2.20;;;;;;;1.40;77.62;96682.53;5056308;28;20049;-73
2022/02/20 03:20:33;;;;;;;6.88;2.20;;;;;;;1.32;78.00;96700.13;5044954;28;20064;-72
2022/02/20 03:22:59;;;;;;;7.20;3.65;;;;;;;1.39;77.55;96697.91;5046140;28;20055;-73
2022/02/20 03:25:26;;;;;;;6.95;2.20;;;;;;;1.37;77.61;96704.66;5046452;28;20568;-72
2022/02/20 03:27:57;;;;;;;7.85;2.00;;;;;;;1.48;77.30;96691.84;5047274;28;20044;-71
2022/02/20 03:30:31;;;;;;;5.80;2.33;;;;;;;1.40;77.23;96709.44;5033817;28;20086;-72
2022/02/20 03:32:59;;;;;;;5.53;2.15;;;;;;;1.44;77.29;96715.88;5048085;28;20044;-71
2022/02/20 03:35:26;;;;;;;5.75;2.10;;;;;;;1.51;77.32;96696.66;5046737;28;20405;-72
2022/02/20 03:37:52;;;;;;;7.38;2.20;;;;;;;1.38;77.28;96682.84;5049239;28;20064;-72
2022/02/20 03:40:26;;;;;;;6.88;2.55;;;;;;;1.52;77.14;96692.88;5065243;28;20053;-72
2022/02/20 03:42:53;;;;;;;5.33;2.20;;;;;;;1.51;77.18;96740.53;5030703;28;20075;-72
2022/02/20 03:45:55;;;;;;;5.68;2.33;;;;;;;1.61;76.88;96703.78;5006709;28;20664;-73
2022/02/20 03:48:23;;;;;;;6.78;2.80;;;;;;;1.57;76.90;96714.34;5035004;28;20053;-72
2022/02/20 03:51:02;;;;;;;6.80;2.47;;;;;;;1.42;76.98;96723.44;5065816;28;20040;-72
2022/02/20 03:53:29;;;;;;;8.70;2.33;;;;;;;1.46;77.35;96740.63;5065888;28;20041;-71
2022/02/20 03:55:57;;;;;;;6.85;2.47;;;;;;;1.45;77.03;96701.31;5063510;28;20049;-72
2022/02/20 03:58:23;;;;;;;12.23;2.78;;;;;;;1.57;77.07;96733.19;5063374;28;20052;-72
2022/02/20 04:00:52;;;;;;;8.13;2.40;;;;;;;1.53;76.88;96726.78;5048318;28;20080;-72
2022/02/20 04:03:34;;;;;;;8.25;2.60;;;;;;;1.44;77.07;96717.75;5046523;28;20055;-72
2022/02/20 04:06:02;;;;;;;12.77;2.67;;;;;;;1.29;77.24;96724.16;5062938;28;20056;-71
2022/02/20 04:08:28;;;;;;;6.25;2.55;;;;;;;1.56;76.89;96720.81;5061533;28;20069;-73
2022/02/20 04:10:59;;;;;;;7.22;2.92;;;;;;;1.62;76.46;96713.47;5049075;28;20582;-72
2022/02/20 04:13:48;;;;;;;7.82;2.72;;;;;;;1.65;75.97;96729.03;5047947;28;20147;-72
2022/02/20 04:16:19;;;;;;;6.78;2.47;;;;;;;1.66;76.31;96730.63;5048072;28;20119;-72
2022/02/20 04:18:52;;;;;;;6.88;2.28;;;;;;;1.55;76.23;96730.00;5025491;28;20547;-73
2022/02/20 04:21:25;;;;;;;5.28;2.17;;;;;;;1.62;76.10;96735.81;5036795;28;20051;-72
2022/02/20 04:23:58;;;;;;;6.82;2.50;;;;;;;1.68;75.93;96741.91;5064508;28;20071;-72
2022/02/20 04:26:24;;;;;;;5.80;2.63;;;;;;;1.62;76.13;96722.34;5043343;28;20640;-72
2022/02/20 04:28:50;;;;;;;6.20;2.00;;;;;;;1.71;75.65;96754.81;5048959;28;20055;-72
2022/02/20 04:31:18;;;;;;;5.13;2.28;;;;;;;1.63;75.66;96723.94;5048868;28;21497;-72
2022/02/20 04:33:48;;;;;;;5.60;2.03;;;;;;;1.75;75.55;96761.22;5051763;28;20528;-72
2022/02/20 04:36:15;;;;;;;5.85;2.10;;;;;;;1.62;75.37;96726.94;5044386;28;20140;-72
2022/02/20 04:38:47;;;;;;;4.85;1.95;;;;;;;1.67;75.16;96767.25;5043062;28;20576;-72
2022/02/20 04:41:15;;;;;;;5.43;2.17;;;;;;;1.68;74.99;96768.84;5014718;28;20057;-71
2022/02/20 04:43:41;;;;;;;5.60;2.20;;;;;;;1.71;75.29;96784.44;5050554;28;20171;-72
2022/02/20 04:46:09;;;;;;;4.82;1.80;;;;;;;1.82;74.98;96777.81;5038987;28;20044;-72
2022/02/20 04:48:36;;;;;;;6.10;2.00;;;;;;;1.79;74.96;96775.72;5042794;28;20053;-73
2022/02/20 04:51:06;;;;;;;5.13;1.70;;;;;;;1.76;74.75;96781.69;5051305;28;20053;-72
2022/02/20 04:53:33;;;;;;;5.53;1.97;;;;;;;1.83;74.65;96794.78;5031963;28;20053;-71
2022/02/20 04:56:00;;;;;;;4.20;1.60;;;;;;;1.80;74.71;96782.69;5059699;28;20079;-72
2022/02/20 04:58:35;;;;;;;5.05;2.17;;;;;;;1.88;74.76;96785.84;5046820;28;20081;-72
2022/02/20 05:01:04;;;;;;;4.97;1.80;;;;;;;1.94;74.43;96780.06;5048766;28;20075;-71
2022/02/20 05:03:49;;;;;;;5.45;1.90;;;;;;;1.98;74.23;96789.19;5048310;28;20052;-73
2022/02/20 05:06:27;;;;;;;8.38;2.33;;;;;;;2.00;74.25;96804.25;5046108;28;20639;-73
2022/02/20 05:08:55;;;;;;;7.60;2.35;;;;;;;2.02;74.47;96810.16;5049548;28;20048;-73
2022/02/20 05:11:27;;;;;;;7.20;2.25;;;;;;;1.89;74.71;96798.22;5061752;28;20057;-72
2022/02/20 05:13:59;;;;;;;7.60;2.30;;;;;;;2.00;74.54;96801.56;5050178;28;20079;-74
2022/02/20 05:16:29;;;;;;;8.30;2.60;;;;;;;1.84;74.51;96780.22;5048397;28;20375;-72
2022/02/20 05:18:55;;;;;;;8.60;2.50;;;;;;;2.05;74.43;96796.09;5048655;28;20060;-73
2022/02/20 05:21:22;;;;;;;12.32;2.65;;;;;;;2.08;74.62;96806.28;5052552;28;20092;-73
2022/02/20 05:23:50;;;;;;;9.50;2.55;;;;;;;2.06;74.56;96828.16;5062218;28;20588;-73
2022/02/20 05:26:16;;;;;;;7.32;2.40;;;;;;;2.08;74.42;96820.56;5047078;28;20571;-73
2022/02/20 05:28:46;;;;;;;6.85;2.28;;;;;;;2.01;74.01;96824.72;5042689;28;20496;-73
2022/02/20 05:31:16;;;;;;;7.95;2.40;;;;;;;2.12;74.21;96824.28;5049965;28;20049;-73
2022/02/20 05:33:48;;;;;;;11.05;2.90;;;;;;;1.98;74.40;96832.31;5046888;28;20189;-73
2022/02/20 05:36:14;;;;;;;6.72;2.47;;;;;;;2.06;74.25;96838.94;5048342;28;20094;-73
2022/02/20 05:38:51;;;;;;;6.43;3.00;;;;;;;2.05;74.03;96831.13;5048763;28;20041;-73
2022/02/20 05:41:20;;;;;;;8.27;2.42;;;;;;;2.06;74.33;96836.25;5064815;28;20048;-73
2022/02/20 05:43:46;;;;;;;;;;;;;;;2.19;74.07;96844.69;5032197;28;20510;-73
2022/02/20 05:46:13;;;;;;;13.05;3.63;;;;;;;2.11;74.26;96848.84;5017477;28;19963;-73
2022/02/20 05:48:40;;;;;;;13.38;2.70;;;;;;;2.03;74.65;96852.19;5048380;28;20102;-73
2022/02/20 05:51:14;;;;;;;8.48;3.00;;;;;;;2.11;74.48;96846.94;5033473;28;20095;-75
2022/02/20 05:53:54;;;;;;;9.05;2.45;;;;;;;2.11;74.12;96843.47;5033992;28;20501;-74
2022/02/20 05:56:24;;;;;;;10.23;3.08;;;;;;;2.21;74.24;96856.78;5033110;28;20056;-73
2022/02/20 05:58:54;;;;;;;8.27;2.75;;;;;;;2.11;74.43;96860.41;5047704;28;20469;-75
2022/02/20 06:01:21;;;;;;;9.23;3.00;;;;;;;2.15;74.40;96873.31;5048879;28;20057;-74
2022/02/20 06:03:53;;;;;;;13.68;3.13;;;;;;;2.15;74.54;96873.31;5044545;28;20061;-74
2022/02/20 06:06:39;;;;;;;10.48;3.30;;;;;;;2.12;74.57;96870.09;5005621;28;20044;-75
2022/02/20 06:09:19;;;;;;;8.95;3.13;;;;;;;2.10;74.75;96875.00;5047456;28;20473;-74
2022/02/20 06:11:49;;;;;;;8.98;2.50;;;;;;;2.13;74.75;96885.19;5061745;28;20072;-74
2022/02/20 06:14:38;;;;;;;8.70;2.72;;;;;;;2.07;74.79;96880.97;5048599;28;20067;-74
2022/02/20 06:17:14;;;;;;;9.30;2.47;;;;;;;2.18;74.85;96878.94;5049569;28;20060;-74
2022/02/20 06:20:05;;;;;;;9.82;3.47;;;;;;;2.05;75.15;96893.94;5002494;28;20053;-74
2022/02/20 06:22:50;;;;;;;8.85;2.72;;;;;;;2.15;74.93;96893.00;5047808;28;20045;-75
2022/02/20 06:25:23;;;;;;;7.22;2.50;;;;;;;2.12;74.73;96902.47;5047604;28;20101;-75
2022/02/20 06:27:58;;;;;;;8.77;3.03;;;;;;;2.11;74.74;96903.56;5049144;28;20501;-75
2022/02/20 06:30:28;;;;;;;9.25;3.17;;;;;;;2.13;74.88;96914.06;5030051;28;20127;-75
2022/02/20 06:32:54;;;;;;;9.27;3.08;;;;;;;2.15;74.97;96924.53;5058307;28;20424;-75
2022/02/20 06:35:21;;;;;;;7.45;2.70;;;;;;;2.19;74.88;96912.09;5062103;28;20045;-74
2022/02/20 06:37:47;;;;;;;13.57;10.57;;;;;;;2.24;74.83;96928.97;5056656;28;20061;-75
2022/02/20 06:40:15;;;;;;;16.25;3.85;;;;;;;2.14;74.66;96907.56;5046950;28;20045;-74
2022/02/20 06:42:41;;;;;;;13.98;3.38;;;;;;;2.23;74.76;96940.06;5058002;28;20076;-74
2022/02/20 06:45:17;;;;;;;13.82;7.70;;;;;;;2.23;74.89;96937.38;5047783;28;20052;-73
2022/02/20 06:48:06;;;;;;;11.40;4.50;;;;;;;2.35;74.66;96956.63;5043746;28;20591;-73
2022/02/20 06:50:51;;;;;;;13.75;5.25;;;;;;;2.43;74.26;96963.28;5047744;28;20063;-72
2022/02/20 06:53:43;;;;;;;19.30;6.53;;;;;;;2.47;74.19;96958.88;5037226;28;20076;-75
2022/02/20 06:56:24;;;;;;;10.95;4.28;;;;;;;2.60;73.87;96962.75;5064079;28;20428;-72
2022/02/20 06:58:50;;;;;;;9.23;4.00;;;;;;;2.62;73.88;96981.34;5046948;28;20144;-72
2022/02/20 07:01:17;;;;;;;9.88;3.67;;;;;;;2.73;73.44;96979.31;5047325;28;20091;-72
2022/02/20 07:03:43;;;;;;;11.25;3.58;;;;;;;2.72;73.21;96986.56;5041667;28;20421;-72
2022/02/20 07:06:10;;;;;;;7.72;2.80;;;;;;;2.77;73.08;96994.63;5045138;28;20055;-73
2022/02/20 07:08:36;;;;;;;9.00;3.17;;;;;;;2.84;72.81;97005.84;5048429;28;20135;-73
2022/02/20 07:11:03;;;;;;;8.93;3.47;;;;;;;2.86;72.89;97002.03;5048939;28;20047;-73
2022/02/20 07:13:29;;;;;;;9.38;3.65;;;;;;;2.88;72.69;97022.25;5048712;28;20532;-72
2022/02/20 07:15:55;;;;;;;11.30;3.40;;;;;;;2.80;72.98;97015.63;5047707;28;20103;-73
2022/02/20 07:18:23;;;;;;;16.27;4.00;;;;;;;2.77;72.99;97032.41;5045568;28;20053;-73
2022/02/20 07:20:49;;;;;;;11.38;3.33;;;;;;;2.71;72.88;97022.75;5044517;28;20283;-73
2022/02/20 07:23:16;;;;;;;8.75;2.67;;;;;;;2.82;72.83;97048.50;5012530;28;20143;-73
2022/02/20 07:25:42;;;;;;;8.55;3.17;;;;;;;2.82;72.95;97047.72;5046427;28;20052;-73
2022/02/20 07:28:09;;;;;;;10.15;2.80;;;;;;;2.74;72.93;97064.56;5049638;28;20068;-73
2022/02/20 07:30:35;;;;;;;7.20;2.50;;;;;;;2.76;73.00;97054.28;5048616;28;20063;-73
2022/02/20 07:33:08;;;;;;;10.80;2.80;;;;;;;2.91;72.44;97064.06;5047948;28;20119;-74
2022/02/20 07:35:35;;;;;;;8.43;2.72;;;;;;;2.78;72.15;97069.09;5042404;28;20099;-73
2022/02/20 07:38:03;;;;;;;5.97;2.50;;;;;;;2.95;72.23;97082.06;5044723;28;20040;-73
2022/02/20 07:40:29;;;;;;;8.57;2.60;;;;;;;2.97;72.27;97087.19;5042042;28;20068;-73
2022/02/20 07:42:56;;;;;;;27.88;8.80;;;;;;;3.01;72.02;97092.81;5047467;28;20044;-73
2022/02/20 07:45:23;;;;;;;22.63;6.95;;;;;;;2.97;72.08;97089.88;5015467;28;20548;-73
2022/02/20 07:47:52;;;;;;;10.15;4.10;;;;;;;3.10;71.75;97091.03;5049183;28;20049;-73
2022/02/20 07:50:21;;;;;;;14.25;3.83;;;;;;;2.95;71.61;97095.56;5046531;28;20079;-74
2022/02/20 07:52:48;;;;;;;8.23;2.80;;;;;;;3.02;71.55;97110.63;5047495;28;20056;-74
2022/02/20 07:55:16;;;;;;;7.25;2.70;;;;;;;3.10;71.58;97121.56;5048846;28;20060;-74
2022/02/20 07:57:43;;;;;;;8.88;2.60;;;;;;;3.15;71.43;97133.38;5048791;28;20135;-71
2022/02/20 08:00:10;;;;;;;7.10;2.53;;;;;;;3.15;71.05;97122.56;5048539;28;20147;-71
2022/02/20 08:02:40;;;;;;;6.43;2.38;;;;;;;3.27;70.77;97133.75;5042339;28;20556;-72
2022/02/20 08:05:08;;;;;;;9.20;2.67;;;;;;;3.30;70.62;97143.19;5060710;28;20103;-71
2022/02/20 08:07:34;;;;;;;9.27;2.80;;;;;;;3.35;70.30;97135.00;5030415;28;20421;-72
2022/02/20 08:10:02;;;;;;;8.23;2.97;;;;;;;3.33;70.13;97156.09;5046762;28;20053;-72
2022/02/20 08:12:29;;;;;;;10.13;3.30;;;;;;;3.38;69.99;97164.13;5040579;28;20046;-72
2022/02/20 08:14:55;;;;;;;8.25;2.90;;;;;;;3.48;69.83;97163.16;5042285;28;20072;-69
2022/02/20 08:17:21;;;;;;;11.88;2.92;;;;;;;3.46;69.73;97181.56;5047873;28;20057;-72
2022/02/20 08:19:47;;;;;;;8.77;2.83;;;;;;;3.40;69.62;97195.16;5048204;28;20087;-72
2022/02/20 08:22:15;;;;;;;13.50;3.47;;;;;;;3.47;69.67;97194.78;5045470;28;20511;-71
2022/02/20 08:24:41;;;;;;;8.70;3.00;;;;;;;3.45;69.68;97205.09;5045181;28;20084;-71
2022/02/20 08:27:07;;;;;;;9.32;3.13;;;;;;;3.54;69.14;97203.31;5048434;28;20075;-71
2022/02/20 08:29:35;;;;;;;74.05;22.15;;;;;;;3.32;68.20;97209.31;5044960;28;20056;-70
2022/02/20 08:32:03;;;;;;;30.00;10.57;;;;;;;3.43;68.40;97198.38;5059769;28;20087;-74
2022/02/20 08:34:30;;;;;;;25.88;6.68;;;;;;;3.48;68.02;97215.31;5044381;28;20044;-73
2022/02/20 08:36:56;;;;;;;19.60;6.68;;;;;;;3.66;67.58;97237.22;5046250;28;20437;-74
2022/02/20 08:39:22;;;;;;;12.05;3.65;;;;;;;3.81;67.15;97241.59;5046610;28;20049;-74
2022/02/20 08:41:49;;;;;;;9.02;2.92;;;;;;;3.94;66.70;97197.59;5047229;28;20493;-73
2022/02/20 08:44:15;;;;;;;10.20;2.78;;;;;;;4.19;65.99;97244.25;5042625;28;20139;-76
2022/02/20 08:46:42;;;;;;;12.73;2.78;;;;;;;4.35;65.38;97241.31;5061209;28;20060;-74
2022/02/20 08:49:08;;;;;;;8.88;2.60;;;;;;;4.59;64.56;97214.09;5047419;28;20509;-75
2022/02/20 08:51:34;;;;;;;6.70;2.15;;;;;;;4.80;63.97;97255.13;5036736;28;20052;-75
2022/02/20 08:54:00;;;;;;;13.05;3.80;;;;;;;4.98;63.94;97244.50;5062310;28;20059;-75
2022/02/20 08:56:27;;;;;;;5.75;2.10;;;;;;;5.00;63.87;97260.47;5045948;28;20048;-75
2022/02/20 08:58:53;;;;;;;7.07;2.67;;;;;;;5.01;63.56;97243.13;5046335;28;20055;-75
2022/02/20 09:01:20;;;;;;;21.05;3.55;;;;;;;4.89;63.28;97249.00;5047032;28;20047;-75
2022/02/20 09:03:46;;;;;;;9.18;2.92;;;;;;;4.85;62.85;97275.09;5047932;28;20061;-75
2022/02/20 09:06:12;;;;;;;9.18;2.50;;;;;;;4.73;62.85;97281.00;5044990;28;20515;-76
2022/02/20 09:08:39;;;;;;;9.10;2.63;;;;;;;4.62;63.33;97281.16;5050346;28;20056;-75
2022/02/20 09:11:05;;;;;;;14.13;3.25;;;;;;;4.45;63.92;97302.56;5048924;28;20073;-74
2022/02/20 09:13:31;;;;;;;7.57;3.00;;;;;;;4.28;64.22;97297.69;5048358;28;20045;-75
2022/02/20 09:15:58;;;;;;;13.45;2.50;;;;;;;4.45;64.33;97314.22;5047809;28;20037;-75
2022/02/20 09:18:25;;;;;;;7.15;2.70;;;;;;;4.71;63.34;97310.28;5049301;28;20055;-75
2022/02/20 09:20:51;;;;;;;11.05;3.15;;;;;;;5.05;61.80;97317.25;5052311;28;20052;-75
2022/02/20 09:23:18;;;;;;;8.35;2.72;;;;;;;5.31;60.87;97322.19;5044118;28;20045;-74
2022/02/20 09:25:46;;;;;;;7.55;2.30;;;;;;;5.49;58.99;97296.06;5050221;28;20051;-75
2022/02/20 09:28:12;;;;;;;11.07;3.53;;;;;;;5.65;58.20;97302.78;5046877;28;20544;-74
2022/02/20 09:30:39;;;;;;;12.20;4.05;;;;;;;5.53;58.03;97313.31;5051357;28;20543;-74
2022/02/20 09:33:05;;;;;;;8.65;2.88;;;;;;;5.21;58.21;97342.13;5052502;28;20051;-74
2022/02/20 09:35:32;;;;;;;6.88;2.50;;;;;;;5.01;59.00;97308.91;5048651;28;20514;-75
2022/02/20 09:37:58;;;;;;;7.50;2.37;;;;;;;5.08;58.61;97349.97;5068058;28;20037;-74
2022/02/20 09:40:24;;;;;;;7.90;2.28;;;;;;;5.16;58.64;97361.19;5049558;28;20059;-74
2022/02/20 09:42:51;;;;;;;8.55;2.72;;;;;;;5.22;58.31;97366.22;5049073;28;20045;-75
2022/02/20 09:45:17;;;;;;;8.02;3.05;;;;;;;5.31;57.70;97358.19;5050114;28;20041;-74
2022/02/20 09:47:44;;;;;;;8.20;2.80;;;;;;;5.52;57.63;97363.22;5050015;28;20060;-75
2022/02/20 09:50:10;;;;;;;;;;;;;;;5.60;56.76;97364.44;5047909;28;20053;-74
2022/02/20 09:52:37;;;;;;;12.90;3.60;;;;;;;5.49;56.98;97377.38;5063762;28;19924;-74
2022/02/20 09:55:04;;;;;;;8.52;2.72;;;;;;;5.63;55.94;97344.88;5065074;28;20495;-74
2022/02/20 09:57:31;;;;;;;7.68;2.45;;;;;;;5.58;54.94;97375.59;5044835;28;20088;-73
2022/02/20 09:59:57;;;;;;;7.25;2.67;;;;;;;5.46;54.70;97304.81;5052162;28;20052;-74
2022/02/20 10:02:27;;;;;;;8.25;3.08;;;;;;;5.48;54.26;97389.34;5051179;28;20053;-73
2022/02/20 10:04:55;;;;;;;7.95;2.75;;;;;;;5.20;53.98;97360.31;5043913;28;20053;-74
2022/02/20 10:07:27;;;;;;;7.57;2.78;;;;;;;5.22;54.13;97403.34;5047316;28;20084;-74
2022/02/20 10:09:54;;;;;;;6.85;2.72;;;;;;;5.38;53.63;97401.16;5042940;28;20099;-74
2022/02/20 10:12:22;;;;;;;7.38;2.70;;;;;;;5.93;52.94;97422.06;5049621;28;20060;-74
2022/02/20 10:14:48;;;;;;;21.48;2.95;;;;;;;6.85;51.30;97406.78;5039497;28;20048;-74
2022/02/20 10:17:16;;;;;;;8.23;3.00;;;;;;;7.31;49.69;97404.03;5048332;28;20052;-73
2022/02/20 10:20:07;;;;;;;7.20;2.80;;;;;;;7.06;50.09;97411.75;5062327;28;20037;-75
2022/02/20 10:22:51;;;;;;;8.02;3.25;;;;;;;7.08;49.70;97406.78;5048274;28;20049;-76
2022/02/20 10:25:37;;;;;;;8.15;2.83;;;;;;;8.29;46.37;97425.84;5047088;28;20421;-76
2022/02/20 10:28:22;;;;;;;11.10;2.15;;;;;;;8.40;46.27;97388.22;5048194;28;20195;-76
2022/02/20 10:30:55;;;;;;;7.45;3.00;;;;;;;8.34;45.50;97425.69;5045159;28;20056;-77
2022/02/20 10:33:24;;;;;;;9.50;2.40;;;;;;;7.70;44.47;97447.88;5031965;28;20095;-77
2022/02/20 10:35:52;;;;;;;7.75;2.58;;;;;;;7.52;46.91;97448.63;5014787;28;20056;-77
2022/02/20 10:38:20;;;;;;;6.07;2.30;;;;;;;7.13;46.57;97462.94;5047576;28;20132;-78
2022/02/20 10:40:50;;;;;;;9.18;2.50;;;;;;;6.83;46.86;97463.34;5048222;28;20558;-78
2022/02/20 10:43:24;;;;;;;7.07;2.60;;;;;;;6.56;48.06;97462.34;5046470;28;20544;-78
2022/02/20 10:46:05;;;;;;;5.00;2.30;;;;;;;6.40;47.91;97456.41;5047781;28;20055;-76
2022/02/20 10:48:37;;;;;;;8.00;2.58;;;;;;;6.44;46.84;97453.91;5063674;28;20071;-76
2022/02/20 10:51:04;;;;;;;6.75;2.45;;;;;;;6.41;47.67;97474.31;5031800;28;20135;-76
2022/02/20 10:53:31;;;;;;;9.38;3.55;;;;;;;7.91;44.58;97470.72;5049578;28;20045;-75
2022/02/20 10:56:01;;;;;;;9.95;3.65;;;;;;;8.09;44.33;97476.22;5049285;28;20037;-75
2022/02/20 10:58:29;;;;;;;10.10;3.80;;;;;;;7.78;44.11;97480.56;5050731;28;20425;-75
2022/02/20 11:00:56;;;;;;;8.98;3.53;;;;;;;7.80;43.64;97434.03;5049314;28;20041;-75
2022/02/20 11:03:23;;;;;;;6.72;2.72;;;;;;;7.77;43.57;97489.84;5063360;28;20072;-75
2022/02/20 11:05:51;;;;;;;8.00;2.65;;;;;;;7.93;41.68;97494.88;5046974;28;20045;-76
2022/02/20 11:08:19;;;;;;;8.77;2.88;;;;;;;7.65;43.50;97457.78;5063809;28;20049;-75
2022/02/20 11:10:47;;;;;;;10.18;3.08;;;;;;;7.38;43.76;97513.94;5031034;28;20052;-75
2022/02/20 11:13:15;;;;;;;8.30;3.08;;;;;;;7.03;44.36;97527.28;5063346;28;20114;-75
2022/02/20 11:15:43;;;;;;;8.27;2.88;;;;;;;7.08;44.68;97520.94;5031254;28;20075;-75
2022/02/20 11:18:14;;;;;;;9.30;2.75;;;;;;;6.62;44.36;97466.53;5048665;28;20087;-75
2022/02/20 11:20:42;;;;;;;11.20;2.25;;;;;;;6.11;44.66;97519.97;5064389;28;20102;-74
2022/02/20 11:23:09;;;;;;;7.53;2.17;;;;;;;6.15;44.45;97531.03;5045634;28;20501;-75
2022/02/20 11:25:37;;;;;;;5.88;2.20;;;;;;;6.36;44.29;97555.84;5045036;28;20057;-74
2022/02/20 11:28:05;;;;;;;7.60;2.25;;;;;;;6.57;43.79;97569.00;5063819;28;20420;-76
2022/02/20 11:30:34;;;;;;;10.25;3.20;;;;;;;6.99;42.82;97556.19;5045134;28;20143;-75
2022/02/20 11:33:02;;;;;;;6.50;2.22;;;;;;;7.11;42.93;97569.22;5063785;28;20051;-75
2022/02/20 11:35:33;;;;;;;9.77;2.33;;;;;;;7.07;42.63;97562.78;5048585;28;20041;-74
2022/02/20 11:38:06;;;;;;;4.55;2.13;;;;;;;6.85;42.83;97542.59;5047390;28;20041;-76
2022/02/20 11:40:50;;;;;;;7.05;2.38;;;;;;;6.58;43.14;97559.75;5044891;28;20060;-76
2022/02/20 11:43:16;;;;;;;6.15;2.30;;;;;;;6.54;43.37;97592.13;5064205;28;20517;-75
2022/02/20 11:46:05;;;;;;;9.50;2.90;;;;;;;6.16;44.36;97586.91;5047590;28;20052;-75
2022/02/20 11:48:32;;;;;;;7.53;2.40;;;;;;;6.02;44.45;97592.31;5047232;28;20053;-75
2022/02/20 11:51:14;;;;;;;5.18;2.22;;;;;;;5.93;44.73;97605.72;5046774;28;20056;-77